Quiberon — FNQY — position and weather

sailwx.info

Track history (hours):
 
Tides and Currents Weather Stations Pressure Air Temp Water Temp Dewpoint Dewpoint Depression Visibility Wind Speed Wind Dir Waves Ship Positions

Quiberon

Operator: Brittany Ferries

Last reported at 2019-Oct-17 04:19 UTC. Time now 2019-Oct-17 16:20 UTC.
Position N 45°00' W 000°34'.

Length 25 m; draft 4.8 m.

Type: Tug. MMSI: 228296800.

Date/timePositionNaut miles runAvg speedWind from/ knotsBaromVisibWave heightAir tempDewpointWater temp
2019-Oct-17 04:19N 45°00' W 000°34'0 0.0
2019-Oct-16 01:56N 45°00' W 000°34'0 0.3
2019-Oct-16 01:28N 45°00' W 000°34'0 0.0
2019-Oct-16 00:56N 45°00' W 000°34'0 0.0
2019-Oct-16 00:30N 45°00' W 000°34'0 0.0
2019-Oct-16 00:00N 45°00' W 000°34'0 0.0
2019-Oct-15 23:29N 45°00' W 000°34'6 0.1
2019-Oct-14 07:18N 44°55' W 000°33'310.9
2019-Oct-14 07:01N 44°58' W 000°33'3 5.1
2019-Oct-14 06:30N 45°00' W 000°34'0 0.2
2019-Oct-14 05:58N 45°00' W 000°34'2 3.6
2019-Oct-14 05:30N 45°01' W 000°36'0 0.8
2019-Oct-14 05:00N 45°01' W 000°35'2 4.4
2019-Oct-14 04:30N 44°60' W 000°33'3 6.5
2019-Oct-14 04:00N 44°56' W 000°33'3 5.9
2019-Oct-14 03:30N 44°53' W 000°32'5 0.6
2019-Oct-13 18:32N 44°59' W 000°32'1 9.9
2019-Oct-13 18:23N 44°60' W 000°33'5 0.4
2019-Oct-13 05:12N 44°55' W 000°33'0 1.8
2019-Oct-13 05:00N 44°55' W 000°33'6 0.2
2019-Oct-11 17:27N 45°00' W 000°34'  
2019-Oct-08 08:55N 44°53' W 000°32'0 0.0
2019-Oct-08 08:30N 44°53' W 000°32'0 0.0
2019-Oct-08 07:26N 44°53' W 000°32'0 0.0
2019-Oct-08 06:56N 44°53' W 000°32'0 0.0
2019-Oct-08 06:11N 44°53' W 000°32'0 0.0
2019-Oct-08 06:00N 44°53' W 000°32'0 0.0
2019-Oct-08 05:30N 44°53' W 000°32'0 0.0
2019-Oct-08 04:34N 44°53' W 000°32'0 0.0
2019-Oct-08 04:29N 44°53' W 000°32'0 0.0
2019-Oct-08 02:54N 44°53' W 000°32'0 0.0
2019-Oct-08 02:28N 44°53' W 000°32'  
Track history (hours):
 
Tides and Currents Weather Stations Pressure Air Temp Water Temp Dewpoint Dewpoint Depression Visibility Wind Speed Wind Dir Waves Ship Positions

Quiberon

Operator: Brittany Ferries

Last reported at 2019-Oct-17 04:19 UTC. Time now 2019-Oct-17 16:20 UTC.
Position N 45°00' W 000°34'.

Length 25 m; draft 4.8 m.

Type: Tug. MMSI: 228296800.

Date/timePositionNaut miles runAvg speedWind from/ knotsBaromVisibWave heightAir tempDewpointWater temp
2019-Oct-17 04:19N 45°00' W 000°34'0 0.0
2019-Oct-16 01:56N 45°00' W 000°34'0 0.3
2019-Oct-16 01:28N 45°00' W 000°34'0 0.0
2019-Oct-16 00:56N 45°00' W 000°34'0 0.0
2019-Oct-16 00:30N 45°00' W 000°34'0 0.0
2019-Oct-16 00:00N 45°00' W 000°34'0 0.0
2019-Oct-15 23:29N 45°00' W 000°34'6 0.1
2019-Oct-14 07:18N 44°55' W 000°33'310.9
2019-Oct-14 07:01N 44°58' W 000°33'3 5.1
2019-Oct-14 06:30N 45°00' W 000°34'0 0.2
2019-Oct-14 05:58N 45°00' W 000°34'2 3.6
2019-Oct-14 05:30N 45°01' W 000°36'0 0.8
2019-Oct-14 05:00N 45°01' W 000°35'2 4.4
2019-Oct-14 04:30N 44°60' W 000°33'3 6.5
2019-Oct-14 04:00N 44°56' W 000°33'3 5.9
2019-Oct-14 03:30N 44°53' W 000°32'5 0.6
2019-Oct-13 18:32N 44°59' W 000°32'1 9.9
2019-Oct-13 18:23N 44°60' W 000°33'5 0.4
2019-Oct-13 05:12N 44°55' W 000°33'0 1.8
2019-Oct-13 05:00N 44°55' W 000°33'6 0.2
2019-Oct-11 17:27N 45°00' W 000°34'  
2019-Oct-08 08:55N 44°53' W 000°32'0 0.0
2019-Oct-08 08:30N 44°53' W 000°32'0 0.0
2019-Oct-08 07:26N 44°53' W 000°32'0 0.0
2019-Oct-08 06:56N 44°53' W 000°32'0 0.0
2019-Oct-08 06:11N 44°53' W 000°32'0 0.0
2019-Oct-08 06:00N 44°53' W 000°32'0 0.0
2019-Oct-08 05:30N 44°53' W 000°32'0 0.0
2019-Oct-08 04:34N 44°53' W 000°32'0 0.0
2019-Oct-08 04:29N 44°53' W 000°32'0 0.0
2019-Oct-08 02:54N 44°53' W 000°32'0 0.0
2019-Oct-08 02:28N 44°53' W 000°32'  

Dump ship's entire track history